Terminal Aerodrome Forecast
Issued by NWS

Home | Current Version | Previous Version | Graphics & Text | Print | Product List | Glossary On
Versions: 1 2 3 4 5 6 7 8 9 10 11 12 13 14 15 16 17 18 19 20 21 22 23 24 25 26 27 28 29 30 31
000
FTUS43 KLOT 240200 AAA
TAFDPA
TAF AMD
KDPA 240257Z 2403/2424 20005KT P6SM SCT020 OVC120
     FM240600 34004KT P6SM OVC100
     FM241000 36006KT 6SM BR VCSH OVC050
     FM241400 36013G22KT 4SM -RASN BR SCT008 OVC015 PROB30 2415/2417
      1SM -SNRA OVC008
     FM241700 30012KT 1SM -SN OVC006=

USA.gov is the U.S. government's official web portal to all federal, state and local government web resources and services.